createdAt,value
2018-10-09T00:01:17.550Z,101840.00
2018-10-09T00:03:46.356Z,101844.00
2018-10-09T00:06:15.166Z,101847.00
2018-10-09T00:08:43.975Z,101832.00
2018-10-09T00:11:12.786Z,101837.00
2018-10-09T00:13:41.589Z,101837.00
2018-10-09T00:16:10.402Z,101829.00
2018-10-09T00:18:39.207Z,101821.00
2018-10-09T00:21:08.043Z,101822.00
2018-10-09T00:23:37.242Z,101815.00
2018-10-09T00:26:06.200Z,101805.00
2018-10-09T00:28:34.911Z,101809.00
2018-10-09T00:31:03.731Z,101817.00
2018-10-09T00:33:32.507Z,101825.00
2018-10-09T00:36:01.309Z,101824.00
2018-10-09T00:38:30.102Z,101830.00
2018-10-09T00:40:59.065Z,101819.00
2018-10-09T00:43:27.866Z,101816.00
2018-10-09T00:45:56.974Z,101812.00
2018-10-09T00:48:25.762Z,101797.00
2018-10-09T00:50:54.600Z,101807.00
2018-10-09T00:53:23.421Z,101807.00
2018-10-09T00:55:52.235Z,101808.00
2018-10-09T00:58:21.729Z,101804.00
2018-10-09T01:00:50.559Z,101799.00
2018-10-09T01:03:19.386Z,101816.00
2018-10-09T01:05:48.201Z,101809.00
2018-10-09T01:08:17.447Z,101818.00
2018-10-09T01:10:46.253Z,101818.00
2018-10-09T01:13:15.051Z,101820.00
2018-10-09T01:15:43.861Z,101816.00
2018-10-09T01:18:12.653Z,101808.00
2018-10-09T01:20:41.506Z,101817.00
2018-10-09T01:23:10.317Z,101813.00
2018-10-09T01:25:39.124Z,101823.00
2018-10-09T01:28:07.981Z,101821.00
2018-10-09T01:30:36.896Z,101819.00
2018-10-09T01:33:05.754Z,101833.00
2018-10-09T01:35:34.572Z,101823.00
2018-10-09T01:38:03.358Z,101819.00
2018-10-09T01:40:32.166Z,101814.00
2018-10-09T01:43:00.941Z,101826.00
2018-10-09T01:45:29.781Z,101812.00
2018-10-09T01:47:58.569Z,101818.00
2018-10-09T01:50:27.394Z,101812.00
2018-10-09T01:52:56.404Z,101813.00
2018-10-09T01:55:25.237Z,101806.00
2018-10-09T01:57:54.029Z,101807.00
2018-10-09T02:00:23.413Z,101794.00
2018-10-09T02:02:52.283Z,101804.00
2018-10-09T02:05:21.082Z,101805.00
2018-10-09T02:07:49.982Z,101812.00
2018-10-09T02:10:18.785Z,101805.00
2018-10-09T02:12:47.565Z,101806.00
2018-10-09T02:15:16.484Z,101813.00
2018-10-09T02:17:45.314Z,101806.00
2018-10-09T02:20:14.099Z,101807.00
2018-10-09T02:22:42.902Z,101813.00
2018-10-09T02:25:11.791Z,101809.00
2018-10-09T02:27:40.594Z,101807.00
2018-10-09T02:30:10.002Z,101824.00
2018-10-09T02:32:38.810Z,101827.00
2018-10-09T02:35:08.337Z,101831.00
2018-10-09T02:37:37.364Z,101840.00
2018-10-09T02:40:07.018Z,101841.00
2018-10-09T02:42:35.816Z,101841.00
2018-10-09T02:45:04.693Z,101848.00
2018-10-09T02:47:33.498Z,101839.00
2018-10-09T02:50:02.293Z,101825.00
2018-10-09T02:52:31.102Z,101810.00
2018-10-09T02:54:59.906Z,101823.00
2018-10-09T02:57:31.707Z,101819.00
2018-10-09T03:00:00.970Z,101819.00
2018-10-09T03:02:30.294Z,101833.00
2018-10-09T03:04:59.107Z,101827.00
2018-10-09T03:07:27.914Z,101814.00
2018-10-09T03:09:56.713Z,101815.00
2018-10-09T03:12:25.514Z,101820.00
2018-10-09T03:14:54.378Z,101821.00
2018-10-09T03:17:23.182Z,101806.00
2018-10-09T03:19:51.971Z,101805.00
2018-10-09T03:22:21.095Z,101810.00
2018-10-09T03:24:49.916Z,101808.00
2018-10-09T03:27:18.724Z,101810.00
2018-10-09T03:29:47.509Z,101801.00
2018-10-09T03:32:16.330Z,101800.00
2018-10-09T03:34:45.123Z,101810.00
2018-10-09T03:37:13.978Z,101801.00
2018-10-09T03:39:42.789Z,101805.00
2018-10-09T03:42:11.590Z,101810.00
2018-10-09T03:44:40.718Z,101806.00
2018-10-09T03:47:09.550Z,101796.00
2018-10-09T03:49:38.366Z,101796.00
2018-10-09T03:52:07.332Z,101792.00
2018-10-09T03:54:36.169Z,101799.00
2018-10-09T03:57:04.989Z,101794.00
2018-10-09T03:59:33.826Z,101800.00
2018-10-09T04:02:02.637Z,101801.00
2018-10-09T04:04:34.830Z,101810.00
2018-10-09T04:07:03.999Z,101810.00
2018-10-09T04:09:32.791Z,101823.00
2018-10-09T04:12:01.607Z,101811.00
2018-10-09T04:14:30.414Z,101798.00
2018-10-09T04:16:59.213Z,101802.00
2018-10-09T04:19:28.028Z,101811.00
2018-10-09T04:21:56.953Z,101808.00
2018-10-09T04:24:25.738Z,101797.00
2018-10-09T04:26:54.559Z,101810.00
2018-10-09T04:29:23.726Z,101811.00
2018-10-09T04:31:52.507Z,101814.00
2018-10-09T04:34:21.305Z,101812.00
2018-10-09T04:36:50.145Z,101825.00
2018-10-09T04:39:18.939Z,101818.00
2018-10-09T04:41:47.772Z,101818.00
2018-10-09T04:44:16.602Z,101810.00
2018-10-09T04:46:45.409Z,101818.00
2018-10-09T04:49:14.266Z,101808.00
2018-10-09T04:51:43.330Z,101808.00
2018-10-09T04:54:12.158Z,101812.00
2018-10-09T04:56:40.961Z,101800.00
2018-10-09T04:59:09.769Z,101808.00
2018-10-09T05:01:38.566Z,101813.00
2018-10-09T05:04:07.470Z,101811.00
2018-10-09T05:06:36.854Z,101816.00
2018-10-09T05:09:09.377Z,101821.00
2018-10-09T05:11:38.588Z,101823.00
2018-10-09T05:14:07.518Z,101824.00
2018-10-09T05:16:36.741Z,101820.00
2018-10-09T05:19:05.665Z,101833.00
2018-10-09T05:21:34.782Z,101833.00
2018-10-09T05:24:03.640Z,101844.00
2018-10-09T05:26:32.494Z,101842.00
2018-10-09T05:29:01.322Z,101848.00
2018-10-09T05:31:30.178Z,101851.00
2018-10-09T05:33:59.518Z,101847.00
2018-10-09T05:36:28.357Z,101847.00
2018-10-09T05:38:57.153Z,101847.00
2018-10-09T05:41:25.974Z,101848.00
2018-10-09T05:43:54.777Z,101856.00
2018-10-09T05:46:23.603Z,101855.00
2018-10-09T05:48:52.423Z,101854.00
2018-10-09T05:51:21.206Z,101852.00
2018-10-09T05:53:50.000Z,101852.00
2018-10-09T05:56:19.506Z,101864.00
2018-10-09T05:58:48.281Z,101860.00
2018-10-09T06:01:17.097Z,101877.00
2018-10-09T06:03:45.946Z,101882.00
2018-10-09T06:06:14.750Z,101875.00
2018-10-09T06:08:44.208Z,101877.00
2018-10-09T06:11:13.029Z,101890.00
2018-10-09T06:13:41.864Z,101896.00
2018-10-09T06:16:10.669Z,101902.00
2018-10-09T06:18:39.930Z,101889.00
2018-10-09T06:21:08.768Z,101882.00
2018-10-09T06:23:37.593Z,101875.00
2018-10-09T06:26:06.474Z,101870.00
2018-10-09T06:28:35.327Z,101883.00
2018-10-09T06:31:04.117Z,101888.00
2018-10-09T06:33:32.999Z,101878.00
2018-10-09T06:36:01.809Z,101889.00
2018-10-09T06:38:30.614Z,101877.00
2018-10-09T06:40:59.925Z,101893.00
2018-10-09T06:43:28.706Z,101887.00
2018-10-09T06:45:58.510Z,101883.00
2018-10-09T06:48:27.329Z,101888.00
2018-10-09T06:50:56.439Z,101890.00
2018-10-09T06:53:25.558Z,101886.00
2018-10-09T06:55:54.377Z,101884.00
2018-10-09T06:58:23.189Z,101887.00
2018-10-09T07:00:52.060Z,101889.00
2018-10-09T07:03:21.366Z,101893.00
2018-10-09T07:05:50.171Z,101897.00
2018-10-09T07:08:19.423Z,101908.00
2018-10-09T07:10:48.556Z,101909.00
2018-10-09T07:13:17.360Z,101909.00
2018-10-09T07:15:46.485Z,101906.00
2018-10-09T07:18:15.345Z,101903.00
2018-10-09T07:20:44.178Z,101904.00
2018-10-09T07:23:13.038Z,101908.00
2018-10-09T07:25:42.248Z,101903.00
2018-10-09T07:28:11.044Z,101911.00
2018-10-09T07:30:39.832Z,101922.00
2018-10-09T07:33:08.767Z,101916.00
2018-10-09T07:35:37.583Z,101919.00
2018-10-09T07:38:06.419Z,101920.00
2018-10-09T07:40:35.228Z,101927.00
2018-10-09T07:43:04.034Z,101918.00
2018-10-09T07:45:32.845Z,101922.00
2018-10-09T07:48:02.143Z,101927.00
2018-10-09T07:50:31.093Z,101926.00
2018-10-09T07:52:59.983Z,101931.00
2018-10-09T07:55:28.744Z,101928.00
2018-10-09T07:57:57.541Z,101933.00
2018-10-09T08:00:26.365Z,101932.00
2018-10-09T08:02:55.197Z,101942.00
2018-10-09T08:05:24.011Z,101942.00
2018-10-09T08:07:52.801Z,101930.00
2018-10-09T08:10:22.169Z,101944.00
2018-10-09T08:12:51.225Z,101942.00
2018-10-09T08:15:20.026Z,101949.00
2018-10-09T08:17:48.861Z,101945.00
2018-10-09T08:20:17.682Z,101956.00
2018-10-09T08:22:46.554Z,101957.00
2018-10-09T08:25:15.494Z,101971.00
2018-10-09T08:27:44.302Z,101955.00
2018-10-09T08:30:13.129Z,101962.00
2018-10-09T08:32:42.330Z,101956.00
2018-10-09T08:35:11.145Z,101971.00
2018-10-09T08:37:39.980Z,101967.00
2018-10-09T08:40:09.093Z,101971.00
2018-10-09T08:42:37.902Z,101979.00
2018-10-09T08:45:09.027Z,101968.00
2018-10-09T08:47:37.885Z,101969.00
2018-10-09T08:50:08.510Z,101981.00
2018-10-09T08:52:37.339Z,101977.00
2018-10-09T08:55:07.760Z,101977.00
2018-10-09T08:57:36.603Z,101976.00
2018-10-09T09:00:06.242Z,101974.00
2018-10-09T09:02:35.092Z,101983.00
2018-10-09T09:05:03.910Z,101983.00
2018-10-09T09:07:32.693Z,101981.00
2018-10-09T09:10:01.512Z,101997.00
2018-10-09T09:12:30.300Z,101985.00
2018-10-09T09:14:59.594Z,102002.00
2018-10-09T09:17:28.897Z,101999.00
2018-10-09T09:19:57.690Z,102002.00
2018-10-09T09:22:26.490Z,102014.00
2018-10-09T09:24:55.290Z,102005.00
2018-10-09T09:27:24.186Z,102005.00
2018-10-09T09:29:52.931Z,102006.00
2018-10-09T09:32:21.894Z,102000.00
2018-10-09T09:34:50.708Z,102002.00
2018-10-09T09:37:19.538Z,102001.00
2018-10-09T09:39:48.844Z,102013.00
2018-10-09T09:42:17.651Z,102007.00
2018-10-09T09:44:46.450Z,101997.00
2018-10-09T09:47:15.305Z,101996.00
2018-10-09T09:49:44.123Z,102003.00
2018-10-09T09:52:12.976Z,102001.00
2018-10-09T09:54:41.762Z,102001.00
2018-10-09T09:57:10.746Z,101998.00
2018-10-09T09:59:39.552Z,102006.00
2018-10-09T10:02:08.846Z,102001.00
2018-10-09T10:04:37.674Z,102004.00
2018-10-09T10:07:06.531Z,101998.00
2018-10-09T10:09:35.374Z,102003.00
2018-10-09T10:12:04.196Z,101989.00
2018-10-09T10:14:33.021Z,102004.00
2018-10-09T10:17:02.208Z,101995.00
2018-10-09T10:19:31.031Z,101994.00
2018-10-09T10:21:59.833Z,102002.00
2018-10-09T10:24:29.207Z,101994.00
2018-10-09T10:26:58.002Z,101997.00
2018-10-09T10:29:26.807Z,101998.00
2018-10-09T10:31:55.627Z,101996.00
2018-10-09T10:34:24.447Z,101995.00
2018-10-09T10:36:53.258Z,102003.00
2018-10-09T10:39:22.070Z,101995.00
2018-10-09T10:41:50.892Z,102003.00
2018-10-09T10:44:19.755Z,101989.00
2018-10-09T10:46:49.083Z,101996.00
2018-10-09T10:49:24.606Z,101999.00
2018-10-09T10:51:53.371Z,101995.00
2018-10-09T10:54:22.167Z,101994.00
2018-10-09T10:56:50.996Z,101996.00
2018-10-09T10:59:19.807Z,101992.00
2018-10-09T11:01:48.669Z,101977.00
2018-10-09T11:04:17.423Z,101980.00
2018-10-09T11:06:46.659Z,101984.00
2018-10-09T11:09:16.463Z,101934.00
2018-10-09T11:11:45.271Z,101980.00
2018-10-09T11:14:14.073Z,101972.00
2018-10-09T11:16:42.903Z,101958.00
2018-10-09T11:19:12.009Z,101971.00
2018-10-09T11:21:40.923Z,101961.00
2018-10-09T11:24:09.679Z,101962.00
2018-10-09T11:26:38.515Z,101967.00
2018-10-09T11:29:07.796Z,101962.00
2018-10-09T11:31:36.641Z,101961.00
2018-10-09T11:34:05.485Z,101948.00
2018-10-09T11:36:40.902Z,101943.00
2018-10-09T11:39:10.048Z,101937.00
2018-10-09T11:41:38.936Z,101945.00
2018-10-09T11:44:07.773Z,101946.00
2018-10-09T11:46:37.211Z,101941.00
2018-10-09T11:49:07.338Z,101909.00
2018-10-09T11:51:36.726Z,101938.00
2018-10-09T11:54:05.582Z,101939.00
2018-10-09T11:56:34.412Z,101948.00
2018-10-09T11:59:03.367Z,101952.00
2018-10-09T12:01:32.079Z,101956.00
2018-10-09T12:04:00.907Z,101939.00
2018-10-09T12:06:29.751Z,101941.00
2018-10-09T12:08:58.567Z,101947.00
2018-10-09T12:11:27.354Z,101953.00
2018-10-09T12:13:56.630Z,101956.00
2018-10-09T12:16:25.451Z,101950.00
2018-10-09T12:18:54.271Z,101953.00
2018-10-09T12:21:23.578Z,101944.00
2018-10-09T12:23:52.334Z,101953.00
2018-10-09T12:26:21.152Z,101953.00
2018-10-09T12:28:49.969Z,101947.00
2018-10-09T12:31:19.789Z,101947.00
2018-10-09T12:33:48.649Z,101932.00
2018-10-09T12:36:17.801Z,101931.00
2018-10-09T12:38:46.657Z,101939.00
2018-10-09T12:41:15.537Z,101936.00
2018-10-09T12:43:44.469Z,101934.00
2018-10-09T12:46:13.267Z,101935.00
2018-10-09T12:48:42.097Z,101933.00
2018-10-09T12:51:10.941Z,101939.00
2018-10-09T12:53:39.743Z,101934.00
2018-10-09T12:56:09.514Z,101938.00
2018-10-09T12:58:38.796Z,101930.00
2018-10-09T13:01:07.730Z,101934.00
2018-10-09T13:03:36.565Z,101930.00
2018-10-09T13:06:05.378Z,101925.00
2018-10-09T13:08:34.241Z,101926.00
2018-10-09T13:11:03.046Z,101919.00
2018-10-09T13:13:31.918Z,101926.00
2018-10-09T13:16:00.765Z,101910.00
2018-10-09T13:18:29.632Z,101918.00
2018-10-09T13:20:59.134Z,101919.00
2018-10-09T13:23:28.149Z,101910.00
2018-10-09T13:25:57.005Z,101908.00
2018-10-09T13:28:26.023Z,101914.00
2018-10-09T13:30:54.933Z,101904.00
2018-10-09T13:33:23.657Z,101912.00
2018-10-09T13:35:52.812Z,101915.00
2018-10-09T13:38:21.701Z,101920.00
2018-10-09T13:40:50.535Z,101920.00
2018-10-09T13:43:19.785Z,101915.00
2018-10-09T13:45:48.638Z,101914.00
2018-10-09T13:48:17.450Z,101903.00
2018-10-09T13:50:46.424Z,101896.00
2018-10-09T13:53:15.223Z,101898.00
2018-10-09T13:55:44.132Z,101896.00
2018-10-09T13:58:12.978Z,101899.00
2018-10-09T14:00:41.788Z,101889.00
2018-10-09T14:03:10.795Z,101880.00
2018-10-09T14:05:39.946Z,101882.00
2018-10-09T14:08:08.842Z,101886.00
2018-10-09T14:10:37.666Z,101876.00
2018-10-09T14:13:06.578Z,101876.00
2018-10-09T14:15:35.378Z,101873.00
2018-10-09T14:18:04.188Z,101861.00
2018-10-09T14:20:33.170Z,101859.00
2018-10-09T14:23:02.002Z,101847.00
2018-10-09T14:25:31.308Z,101843.00
2018-10-09T14:28:00.438Z,101842.00
2018-10-09T14:30:29.335Z,101834.00
2018-10-09T14:32:58.117Z,101842.00
2018-10-09T14:35:26.977Z,101826.00
2018-10-09T14:37:55.782Z,101835.00
2018-10-09T14:40:24.612Z,101832.00
2018-10-09T14:42:53.442Z,101830.00
2018-10-09T14:45:22.304Z,101828.00
2018-10-09T14:47:51.215Z,101835.00
2018-10-09T14:50:20.370Z,101832.00
2018-10-09T14:52:49.180Z,101836.00
2018-10-09T14:55:18.252Z,101835.00
2018-10-09T14:57:47.066Z,101835.00
2018-10-09T15:00:15.906Z,101836.00
2018-10-09T15:02:44.770Z,101835.00
2018-10-09T15:05:13.634Z,101838.00
2018-10-09T15:07:42.523Z,101842.00
2018-10-09T15:10:11.337Z,101840.00
2018-10-09T15:12:40.688Z,101849.00
2018-10-09T15:15:09.524Z,101845.00
2018-10-09T15:17:38.421Z,101854.00
2018-10-09T15:25:07.364Z,101856.00
2018-10-09T15:27:36.681Z,101860.00
2018-10-09T15:30:05.634Z,101864.00
2018-10-09T15:32:34.995Z,101869.00
2018-10-09T15:35:03.820Z,101858.00
2018-10-09T15:37:32.619Z,101864.00
2018-10-09T15:40:01.482Z,101861.00
2018-10-09T15:42:30.887Z,101851.00
2018-10-09T15:44:59.877Z,101863.00
2018-10-09T15:47:28.724Z,101870.00
2018-10-09T15:49:57.530Z,101877.00
2018-10-09T15:52:26.355Z,101872.00
2018-10-09T15:54:55.442Z,101882.00
2018-10-09T15:57:24.245Z,101888.00
2018-10-09T15:59:53.057Z,101882.00
2018-10-09T16:02:21.979Z,101875.00
2018-10-09T16:04:50.868Z,101879.00
2018-10-09T16:07:19.722Z,101874.00
2018-10-09T16:09:48.558Z,101877.00
2018-10-09T16:12:17.392Z,101869.00
2018-10-09T16:14:46.185Z,101875.00
2018-10-09T16:17:15.642Z,101878.00
2018-10-09T16:19:44.436Z,101883.00
2018-10-09T16:22:13.313Z,101864.00
2018-10-09T16:24:42.121Z,101873.00
2018-10-09T16:27:10.918Z,101885.00
2018-10-09T16:29:40.100Z,101881.00
2018-10-09T16:32:08.954Z,101884.00
2018-10-09T16:34:37.713Z,101880.00
2018-10-09T16:37:06.575Z,101890.00
2018-10-09T16:39:35.762Z,101878.00
2018-10-09T16:42:04.576Z,101892.00
2018-10-09T16:44:33.376Z,101889.00
2018-10-09T16:47:06.070Z,101886.00
2018-10-09T16:49:36.553Z,101894.00
2018-10-09T16:52:05.337Z,101901.00
2018-10-09T16:54:34.201Z,101902.00
2018-10-09T16:57:03.021Z,101901.00
2018-10-09T16:59:31.822Z,101899.00
2018-10-09T17:02:01.297Z,101897.00
2018-10-09T17:04:30.125Z,101901.00
2018-10-09T17:06:58.932Z,101912.00
2018-10-09T17:09:27.745Z,101911.00
2018-10-09T17:11:56.547Z,101911.00
2018-10-09T17:14:25.377Z,101917.00
2018-10-09T17:16:54.167Z,101915.00
2018-10-09T17:19:22.971Z,101911.00
2018-10-09T17:21:51.774Z,101917.00
2018-10-09T17:24:20.864Z,101926.00
2018-10-09T17:26:49.713Z,101918.00
2018-10-09T17:29:18.454Z,101929.00
2018-10-09T17:31:47.641Z,101930.00
2018-10-09T17:34:16.443Z,101898.00
2018-10-09T17:36:45.256Z,101925.00
2018-10-09T17:39:14.154Z,101924.00
2018-10-09T17:41:42.897Z,101923.00
2018-10-09T17:44:11.690Z,101928.00
2018-10-09T17:46:40.974Z,101926.00
2018-10-09T17:49:09.775Z,101914.00
2018-10-09T17:51:38.602Z,101923.00
2018-10-09T17:54:07.418Z,101922.00
2018-10-09T17:56:36.323Z,101930.00
2018-10-09T17:59:05.126Z,101930.00
2018-10-09T18:01:33.931Z,101933.00
2018-10-09T18:04:02.749Z,101925.00
2018-10-09T18:06:31.572Z,101924.00
2018-10-09T18:09:00.778Z,101919.00
2018-10-09T18:11:29.571Z,101918.00
2018-10-09T18:13:58.363Z,101926.00
2018-10-09T18:16:27.169Z,101924.00
2018-10-09T18:18:55.950Z,101922.00
2018-10-09T18:21:24.794Z,101923.00
2018-10-09T18:23:53.632Z,101917.00
2018-10-09T18:26:22.437Z,101928.00
2018-10-09T18:28:51.278Z,101920.00
2018-10-09T18:31:20.501Z,101925.00
2018-10-09T18:33:49.677Z,101920.00
2018-10-09T18:36:21.369Z,101916.00
2018-10-09T18:38:50.326Z,101911.00
2018-10-09T18:41:19.255Z,101926.00
2018-10-09T18:43:47.981Z,101919.00
2018-10-09T18:46:16.811Z,101919.00
2018-10-09T18:48:45.617Z,101923.00
2018-10-09T18:51:14.868Z,101924.00
2018-10-09T18:53:44.570Z,101926.00
2018-10-09T18:56:13.384Z,101930.00
2018-10-09T18:58:42.221Z,101923.00
2018-10-09T19:01:11.057Z,101925.00
2018-10-09T19:03:39.842Z,101919.00
2018-10-09T19:06:08.702Z,101918.00
2018-10-09T19:08:37.520Z,101928.00
2018-10-09T19:11:06.336Z,101926.00
2018-10-09T19:13:35.498Z,101916.00
2018-10-09T19:16:04.326Z,101927.00
2018-10-09T19:18:33.132Z,101925.00
2018-10-09T19:21:01.957Z,101918.00
2018-10-09T19:23:30.763Z,101929.00
2018-10-09T19:25:59.543Z,101934.00
2018-10-09T19:28:28.372Z,101929.00
2018-10-09T19:30:57.171Z,101934.00
2018-10-09T19:33:26.050Z,101938.00
2018-10-09T19:35:55.618Z,101930.00
2018-10-09T19:38:24.417Z,101923.00
2018-10-09T19:40:53.209Z,101934.00
2018-10-09T19:43:22.044Z,101927.00
2018-10-09T19:45:50.867Z,101930.00
2018-10-09T19:48:19.751Z,101931.00
2018-10-09T19:50:48.657Z,101932.00
2018-10-09T19:53:17.368Z,101924.00
2018-10-09T19:55:46.181Z,101929.00
2018-10-09T19:58:15.488Z,101935.00
2018-10-09T20:00:44.298Z,101921.00
2018-10-09T20:03:13.116Z,101927.00
2018-10-09T20:05:41.929Z,101920.00
2018-10-09T20:08:10.755Z,101926.00
2018-10-09T20:10:39.579Z,101923.00
2018-10-09T20:13:08.389Z,101932.00
2018-10-09T20:15:37.201Z,101940.00
2018-10-09T20:18:06.160Z,101930.00
2018-10-09T20:20:35.446Z,101922.00
2018-10-09T20:23:04.233Z,101934.00
2018-10-09T20:25:33.054Z,101944.00
2018-10-09T20:28:01.856Z,101935.00
2018-10-09T20:30:30.658Z,101941.00
2018-10-09T20:32:59.449Z,101942.00
2018-10-09T20:35:28.274Z,101941.00
2018-10-09T20:37:57.645Z,101935.00
2018-10-09T20:40:26.517Z,101944.00
2018-10-09T20:42:55.674Z,101947.00
2018-10-09T20:45:24.514Z,101941.00
2018-10-09T20:47:53.310Z,101951.00
2018-10-09T20:50:22.149Z,101948.00
2018-10-09T20:52:50.937Z,101954.00
2018-10-09T20:55:19.738Z,101958.00
2018-10-09T20:57:48.551Z,101945.00
2018-10-09T21:00:17.363Z,101955.00
2018-10-09T21:02:46.173Z,101949.00
2018-10-09T21:05:15.456Z,101948.00
2018-10-09T21:07:44.216Z,101952.00
2018-10-09T21:10:13.017Z,101953.00
2018-10-09T21:12:41.926Z,101958.00
2018-10-09T21:15:10.729Z,101955.00
2018-10-09T21:17:39.632Z,101957.00
2018-10-09T21:20:08.730Z,101958.00
2018-10-09T21:22:37.552Z,101958.00
2018-10-09T21:25:08.207Z,101955.00
2018-10-09T21:27:37.338Z,101953.00
2018-10-09T21:30:06.163Z,101955.00
2018-10-09T21:32:34.960Z,101955.00
2018-10-09T21:35:03.815Z,101940.00
2018-10-09T21:37:32.594Z,101955.00
2018-10-09T21:40:01.920Z,101947.00
2018-10-09T21:42:30.809Z,101951.00
2018-10-09T21:44:59.614Z,101953.00
2018-10-09T21:47:28.435Z,101944.00
2018-10-09T21:49:57.523Z,101956.00
2018-10-09T21:52:26.351Z,101958.00
2018-10-09T21:54:55.157Z,101964.00
2018-10-09T21:57:23.953Z,101955.00
2018-10-09T21:59:52.787Z,101966.00
2018-10-09T22:02:21.579Z,101964.00
2018-10-09T22:04:50.373Z,101965.00
2018-10-09T22:07:19.329Z,101958.00
2018-10-09T22:09:48.393Z,101959.00
2018-10-09T22:12:17.598Z,101960.00
2018-10-09T22:14:46.413Z,101957.00
2018-10-09T22:17:15.226Z,101962.00
2018-10-09T22:19:44.041Z,101956.00
2018-10-09T22:22:12.840Z,101964.00
2018-10-09T22:24:41.628Z,101967.00
2018-10-09T22:27:10.467Z,101967.00
2018-10-09T22:29:39.262Z,101971.00
2018-10-09T22:32:08.077Z,101962.00
2018-10-09T22:34:37.203Z,101957.00
2018-10-09T22:37:06.201Z,101956.00
2018-10-09T22:39:34.997Z,101961.00
2018-10-09T22:42:04.336Z,101963.00
2018-10-09T22:44:33.148Z,101959.00
2018-10-09T22:47:01.947Z,101956.00
2018-10-09T22:49:30.963Z,101959.00
2018-10-09T22:51:59.788Z,101959.00
2018-10-09T22:54:28.628Z,101964.00
2018-10-09T22:56:58.045Z,101965.00
2018-10-09T22:59:27.240Z,101969.00
2018-10-09T23:01:56.055Z,101967.00
2018-10-09T23:04:24.891Z,101969.00
2018-10-09T23:06:53.722Z,101970.00
2018-10-09T23:09:22.529Z,101971.00
2018-10-09T23:11:51.359Z,101966.00
2018-10-09T23:14:20.146Z,101974.00
2018-10-09T23:16:48.973Z,101976.00
2018-10-09T23:19:18.063Z,101971.00
2018-10-09T23:21:46.874Z,101970.00
2018-10-09T23:24:15.658Z,101975.00
2018-10-09T23:26:44.465Z,101974.00
2018-10-09T23:29:13.250Z,101979.00
2018-10-09T23:31:42.057Z,101974.00
2018-10-09T23:34:10.875Z,101980.00
2018-10-09T23:36:39.667Z,101965.00
2018-10-09T23:39:09.025Z,101975.00
2018-10-09T23:41:38.385Z,101981.00
2018-10-09T23:44:07.590Z,101976.00
2018-10-09T23:46:36.399Z,101970.00
2018-10-09T23:49:05.615Z,101964.00
2018-10-09T23:51:34.413Z,101970.00
2018-10-09T23:54:03.226Z,101969.00
2018-10-09T23:56:32.040Z,101962.00
2018-10-09T23:59:00.833Z,101963.00
